Time;durP1;ratioP1;P1;durP2;ratioP2;P2;SDS_P1;SDS_P2;PMS_P1;PMS_P2;Temp;Humidity;BMP_temperature;BMP_pressure;BME280_temperature;BME280_humidity;BME280_pressure;Samples;Min_cycle;Max_cycle;Signal;HPM_P1;HPM_P2
2023/08/31 00:02:04;;;;;;;3.05;1.40;;;;;;;;;;4948510;28;20031;-84
2023/08/31 00:04:33;;;;;;;2.67;1.25;;;;;;;;;;4979204;28;20030;-84
2023/08/31 00:06:58;;;;;;;2.00;1.00;;;;;;;;;;4964107;28;20031;-83
2023/08/31 00:09:25;;;;;;;2.88;1.42;;;;;;;;;;4963815;28;20039;-82
2023/08/31 00:11:51;;;;;;;2.38;1.20;;;;;;;;;;4963002;28;20081;-83
2023/08/31 00:14:17;;;;;;;2.25;1.02;;;;;;;;;;4946873;28;20050;-84
2023/08/31 00:16:43;;;;;;;3.35;1.35;;;;;;;;;;4965382;28;20035;-82
2023/08/31 00:19:08;;;;;;;3.00;1.10;;;;;;;;;;4964087;28;20105;-82
2023/08/31 00:21:35;;;;;;;2.85;1.27;;;;;;;;;;4948493;28;20034;-83
2023/08/31 00:24:01;;;;;;;2.58;1.30;;;;;;;;;;4980225;28;20061;-83
2023/08/31 00:26:27;;;;;;;2.97;1.42;;;;;;;;;;4966157;28;20070;-82
2023/08/31 00:28:53;;;;;;;3.55;1.38;;;;;;;;;;4985785;28;20035;-82
2023/08/31 00:31:21;;;;;;;4.40;1.33;;;;;;;;;;4969382;28;20483;-83
2023/08/31 00:33:48;;;;;;;8.63;1.33;;;;;;;;;;4988996;28;20035;-82
2023/08/31 00:36:14;;;;;;;2.08;1.08;;;;;;;;;;4974256;28;20103;-81
2023/08/31 00:38:40;;;;;;;3.65;1.35;;;;;;;;;;4973774;28;20043;-82
2023/08/31 00:41:07;;;;;;;2.88;1.38;;;;;;;;;;4958450;28;20045;-82
2023/08/31 00:43:33;;;;;;;3.65;1.00;;;;;;;;;;4970369;28;20043;-82
2023/08/31 00:45:59;;;;;;;4.13;1.50;;;;;;;;;;4982165;28;20022;-81
2023/08/31 00:48:25;;;;;;;6.28;1.17;;;;;;;;;;4965135;28;20030;-83
2023/08/31 00:50:50;;;;;;;3.63;1.30;;;;;;;;;;4965322;28;20070;-84
2023/08/31 00:53:19;;;;;;;3.35;1.33;;;;;;;;;;4949372;28;20035;-81
2023/08/31 00:55:45;;;;;;;;;;;;;;;;;;4950133;28;20039;-83
2023/08/31 00:58:11;;;;;;;5.57;1.27;;;;;;;;;;4966001;28;20021;-84
2023/08/31 01:00:45;;;;;;;3.45;1.10;;;;;;;;;;4948478;28;20034;-85
2023/08/31 01:03:35;;;;;;;5.07;1.50;;;;;;;;;;4966043;28;20035;-83
2023/08/31 01:06:10;;;;;;;4.13;1.25;;;;;;;;;;4965146;28;20074;-84
2023/08/31 01:09:12;;;;;;;3.38;1.15;;;;;;;;;;4981921;28;20056;-83
2023/08/31 01:12:07;;;;;;;3.08;1.38;;;;;;;;;;4944678;28;20070;-82
2023/08/31 01:14:42;;;;;;;2.30;1.30;;;;;;;;;;4969593;28;20093;-83
2023/08/31 01:17:08;;;;;;;2.60;1.17;;;;;;;;;;4962680;28;20089;-82
2023/08/31 01:19:40;;;;;;;2.67;1.27;;;;;;;;;;4964666;28;20061;-83
2023/08/31 01:22:10;;;;;;;5.57;1.20;;;;;;;;;;4964765;28;20042;-83
2023/08/31 01:24:36;;;;;;;2.35;1.20;;;;;;;;;;4981266;28;20030;-82
2023/08/31 01:27:04;;;;;;;2.60;1.20;;;;;;;;;;4989548;28;20030;-82
2023/08/31 01:29:29;;;;;;;3.17;1.30;;;;;;;;;;4966665;28;20046;-82
2023/08/31 01:31:55;;;;;;;2.08;1.10;;;;;;;;;;4998121;28;20015;-81
2023/08/31 01:34:21;;;;;;;3.47;1.02;;;;;;;;;;4969170;28;20133;-82
2023/08/31 01:36:48;;;;;;;2.08;0.95;;;;;;;;;;4948330;28;20038;-83
2023/08/31 01:39:17;;;;;;;1.73;1.10;;;;;;;;;;4950614;28;20031;-83
2023/08/31 01:41:48;;;;;;;3.72;1.08;;;;;;;;;;4949809;28;20483;-82
2023/08/31 01:44:16;;;;;;;3.90;0.95;;;;;;;;;;4948278;28;20047;-83
2023/08/31 01:46:45;;;;;;;2.42;1.00;;;;;;;;;;4947126;28;20039;-83
2023/08/31 01:49:11;;;;;;;2.42;1.08;;;;;;;;;;4963973;28;20043;-82
2023/08/31 01:51:36;;;;;;;2.72;0.90;;;;;;;;;;4948403;28;20043;-84
2023/08/31 01:54:02;;;;;;;1.83;1.08;;;;;;;;;;4965829;28;20037;-82
2023/08/31 01:56:27;;;;;;;3.92;1.30;;;;;;;;;;4950496;28;20041;-83
2023/08/31 01:58:54;;;;;;;2.00;1.10;;;;;;;;;;4967392;28;20038;-83
2023/08/31 02:01:20;;;;;;;2.72;0.90;;;;;;;;;;4965004;28;20443;-81
2023/08/31 02:03:46;;;;;;;2.63;1.02;;;;;;;;;;4983715;28;20113;-82
2023/08/31 02:06:11;;;;;;;2.92;1.00;;;;;;;;;;4983589;28;20058;-83
2023/08/31 02:08:39;;;;;;;3.75;0.95;;;;;;;;;;4969391;28;20034;-82
2023/08/31 02:11:04;;;;;;;2.30;1.08;;;;;;;;;;5000663;28;20042;-82
2023/08/31 02:13:30;;;;;;;2.13;0.85;;;;;;;;;;4979653;28;20065;-82
2023/08/31 02:15:56;;;;;;;2.13;0.98;;;;;;;;;;4950821;28;20034;-82
2023/08/31 02:18:21;;;;;;;3.83;0.98;;;;;;;;;;4951931;28;20130;-81
2023/08/31 02:20:47;;;;;;;2.70;1.20;;;;;;;;;;4950619;28;20042;-83
2023/08/31 02:23:13;;;;;;;3.78;1.08;;;;;;;;;;4966451;28;20479;-83
2023/08/31 02:25:40;;;;;;;5.80;2.65;;;;;;;;;;4967353;28;20034;-82
2023/08/31 02:28:06;;;;;;;1.95;1.13;;;;;;;;;;4951596;28;20031;-83
2023/08/31 02:30:32;;;;;;;4.22;1.00;;;;;;;;;;4966523;28;20380;-82
2023/08/31 02:32:57;;;;;;;1.50;0.88;;;;;;;;;;4952606;28;20117;-84
2023/08/31 02:35:23;;;;;;;1.40;0.80;;;;;;;;;;4968809;28;20035;-86
2023/08/31 02:37:48;;;;;;;2.60;1.30;;;;;;;;;;4983897;28;20474;-83
2023/08/31 02:40:15;;;;;;;2.08;1.13;;;;;;;;;;4952448;28;20031;-83
2023/08/31 02:42:41;;;;;;;1.67;1.10;;;;;;;;;;4951609;28;20423;-83
2023/08/31 02:45:07;;;;;;;2.83;1.33;;;;;;;;;;4966767;28;20410;-85
2023/08/31 02:47:33;;;;;;;2.80;1.13;;;;;;;;;;4964749;28;20126;-84
2023/08/31 02:49:59;;;;;;;2.97;1.30;;;;;;;;;;4966274;28;20030;-82
2023/08/31 02:52:25;;;;;;;2.92;1.52;;;;;;;;;;4949057;28;20074;-81
2023/08/31 02:54:51;;;;;;;7.13;1.55;;;;;;;;;;4949892;28;20059;-82
2023/08/31 02:57:19;;;;;;;2.90;1.73;;;;;;;;;;4949315;28;20085;-84
2023/08/31 02:59:46;;;;;;;5.10;1.73;;;;;;;;;;4964586;28;20058;-84
2023/08/31 03:02:18;;;;;;;4.85;1.70;;;;;;;;;;4949081;28;20424;-84
2023/08/31 03:04:45;;;;;;;3.95;1.80;;;;;;;;;;4950074;28;20065;-83
2023/08/31 03:07:13;;;;;;;4.20;2.10;;;;;;;;;;4964394;28;20027;-83
2023/08/31 03:09:40;;;;;;;6.80;1.75;;;;;;;;;;4949483;28;20046;-83
2023/08/31 03:12:06;;;;;;;4.03;1.80;;;;;;;;;;4950764;28;20131;-82
2023/08/31 03:14:33;;;;;;;6.05;2.00;;;;;;;;;;4982156;28;20027;-83
2023/08/31 03:16:59;;;;;;;3.25;1.60;;;;;;;;;;4982113;28;20034;-84
2023/08/31 03:19:24;;;;;;;3.30;1.75;;;;;;;;;;4950773;28;20026;-85
2023/08/31 03:21:50;;;;;;;4.22;1.85;;;;;;;;;;4948323;28;20035;-83
2023/08/31 03:24:16;;;;;;;5.25;2.10;;;;;;;;;;4980686;28;20037;-82
2023/08/31 03:26:41;;;;;;;5.45;1.85;;;;;;;;;;4949826;28;20058;-83
2023/08/31 03:29:08;;;;;;;3.33;1.80;;;;;;;;;;4948268;28;20082;-83
2023/08/31 03:31:33;;;;;;;4.35;2.20;;;;;;;;;;4935041;28;20101;-84
2023/08/31 03:33:59;;;;;;;5.07;2.22;;;;;;;;;;4980721;28;20039;-82
2023/08/31 03:36:25;;;;;;;3.92;2.17;;;;;;;;;;4949241;28;20359;-84
2023/08/31 03:38:50;;;;;;;4.82;2.67;;;;;;;;;;4966715;28;20030;-86
2023/08/31 03:41:16;;;;;;;4.30;2.30;;;;;;;;;;4982686;28;20041;-82
2023/08/31 03:43:42;;;;;;;4.95;2.10;;;;;;;;;;4967706;28;20486;-82
2023/08/31 03:46:07;;;;;;;7.10;2.50;;;;;;;;;;4969420;28;20050;-84
2023/08/31 03:48:34;;;;;;;5.38;3.00;;;;;;;;;;4986630;28;20027;-83
2023/08/31 03:50:59;;;;;;;4.35;2.20;;;;;;;;;;4966511;28;20026;-84
2023/08/31 03:53:25;;;;;;;6.50;2.45;;;;;;;;;;4951722;28;20033;-83
2023/08/31 03:55:55;;;;;;;5.93;2.47;;;;;;;;;;4968003;28;20035;-84
2023/08/31 03:58:22;;;;;;;5.60;2.80;;;;;;;;;;4984130;28;20023;-82
2023/08/31 04:00:50;;;;;;;5.20;3.17;;;;;;;;;;4966820;28;20062;-83
2023/08/31 04:03:18;;;;;;;6.65;3.70;;;;;;;;;;4970382;28;20268;-82
2023/08/31 04:05:43;;;;;;;6.90;3.88;;;;;;;;;;4971075;28;20085;-84
2023/08/31 04:08:10;;;;;;;7.28;3.60;;;;;;;;;;4970956;28;20121;-84
2023/08/31 04:10:36;;;;;;;6.03;3.53;;;;;;;;;;4956540;28;20062;-83
2023/08/31 04:13:02;;;;;;;6.40;2.92;;;;;;;;;;4972597;28;20027;-84
2023/08/31 04:15:28;;;;;;;5.00;3.10;;;;;;;;;;4955179;28;20034;-83
2023/08/31 04:17:53;;;;;;;6.35;3.60;;;;;;;;;;4957267;28;20042;-82
2023/08/31 04:20:19;;;;;;;6.65;3.10;;;;;;;;;;4979601;28;20039;-84
2023/08/31 04:22:45;;;;;;;5.28;3.38;;;;;;;;;;4992838;28;20065;-83
2023/08/31 04:25:11;;;;;;;7.22;3.70;;;;;;;;;;4985067;28;20503;-83
2023/08/31 04:27:39;;;;;;;8.38;4.03;;;;;;;;;;4984322;28;20237;-83
2023/08/31 04:30:06;;;;;;;;;;;;;;;;;;4981741;28;20431;-84
2023/08/31 04:32:33;;;;;;;8.80;3.83;;;;;;;;;;4979448;28;20045;-85
2023/08/31 04:34:58;;;;;;;7.32;4.30;;;;;;;;;;4979490;28;20072;-84
2023/08/31 04:37:24;;;;;;;10.02;4.60;;;;;;;;;;4965051;28;20035;-83
2023/08/31 04:39:50;;;;;;;7.57;4.43;;;;;;;;;;4965233;28;20125;-82
2023/08/31 04:42:18;;;;;;;7.45;4.30;;;;;;;;;;4948913;28;20550;-84
2023/08/31 04:44:47;;;;;;;;;;;;;;;;;;4981624;28;20100;-84
2023/08/31 04:47:12;;;;;;;8.93;4.60;;;;;;;;;;4964640;28;19981;-83
2023/08/31 04:49:38;;;;;;;7.50;4.57;;;;;;;;;;4980535;28;20062;-83
2023/08/31 04:52:03;;;;;;;8.60;4.40;;;;;;;;;;4951603;28;20035;-84
2023/08/31 04:54:30;;;;;;;9.70;4.55;;;;;;;;;;4951128;28;20038;-83
2023/08/31 04:56:55;;;;;;;8.50;4.82;;;;;;;;;;4967516;28;20037;-84
2023/08/31 04:59:21;;;;;;;8.77;4.85;;;;;;;;;;4964619;28;20099;-82
2023/08/31 05:01:46;;;;;;;8.20;4.60;;;;;;;;;;4966001;28;20074;-83
2023/08/31 05:04:12;;;;;;;12.88;5.38;;;;;;;;;;4981034;28;20118;-82
2023/08/31 05:06:38;;;;;;;7.35;4.72;;;;;;;;;;4948646;28;20030;-82
2023/08/31 05:09:05;;;;;;;11.25;5.43;;;;;;;;;;4964819;28;20038;-82
2023/08/31 05:11:32;;;;;;;8.85;4.85;;;;;;;;;;4964663;28;20037;-83
2023/08/31 05:13:57;;;;;;;9.90;5.03;;;;;;;;;;4963636;28;20038;-83
2023/08/31 05:16:24;;;;;;;11.23;6.03;;;;;;;;;;4959256;28;20034;-83
2023/08/31 05:18:49;;;;;;;13.40;4.93;;;;;;;;;;4974153;28;20073;-82
2023/08/31 05:21:15;;;;;;;10.10;5.28;;;;;;;;;;4958324;28;20033;-83
2023/08/31 05:23:40;;;;;;;10.20;4.93;;;;;;;;;;4974875;28;20038;-82
2023/08/31 05:26:06;;;;;;;9.95;5.28;;;;;;;;;;4960653;28;20061;-80
2023/08/31 05:28:31;;;;;;;10.38;5.18;;;;;;;;;;4963731;28;20043;-82
2023/08/31 05:31:00;;;;;;;15.45;5.70;;;;;;;;;;4980571;28;20433;-82
2023/08/31 05:33:27;;;;;;;10.75;5.72;;;;;;;;;;4947903;28;20458;-83
2023/08/31 05:35:52;;;;;;;10.80;5.88;;;;;;;;;;4978793;28;20031;-81
2023/08/31 05:38:18;;;;;;;9.15;5.60;;;;;;;;;;4978663;28;20109;-81
2023/08/31 05:40:46;;;;;;;13.48;5.72;;;;;;;;;;4979015;28;20557;-80
2023/08/31 05:43:12;;;;;;;11.52;5.82;;;;;;;;;;4961358;28;20621;-81
2023/08/31 05:45:37;;;;;;;9.52;5.35;;;;;;;;;;4946278;28;20418;-81
2023/08/31 05:48:03;;;;;;;12.50;5.45;;;;;;;;;;4977699;28;20031;-80
2023/08/31 05:50:29;;;;;;;9.98;5.88;;;;;;;;;;4978639;28;20125;-82
2023/08/31 05:52:55;;;;;;;11.15;5.70;;;;;;;;;;4964718;28;20031;-82
2023/08/31 05:55:23;;;;;;;13.38;5.70;;;;;;;;;;4980593;28;20039;-82
2023/08/31 05:57:48;;;;;;;11.57;5.95;;;;;;;;;;4978404;28;20117;-80
2023/08/31 06:00:14;;;;;;;12.18;6.18;;;;;;;;;;4945830;28;20104;-82
2023/08/31 06:02:41;;;;;;;8.35;5.78;;;;;;;;;;4946786;28;20026;-81
2023/08/31 06:05:06;;;;;;;13.23;6.63;;;;;;;;;;4978883;28;20038;-83
2023/08/31 06:07:32;;;;;;;12.02;5.72;;;;;;;;;;4947478;28;20066;-83
2023/08/31 06:09:57;;;;;;;12.30;6.28;;;;;;;;;;4968708;28;20031;-81
2023/08/31 06:12:23;;;;;;;12.48;6.45;;;;;;;;;;4960486;28;20030;-80
2023/08/31 06:14:48;;;;;;;11.05;6.18;;;;;;;;;;4988856;28;20461;-80
2023/08/31 06:17:14;;;;;;;12.93;6.25;;;;;;;;;;4954203;28;20042;-81
2023/08/31 06:19:41;;;;;;;11.60;5.85;;;;;;;;;;4951422;28;20522;-81
2023/08/31 06:22:07;;;;;;;10.65;6.05;;;;;;;;;;4956005;28;20035;-81
2023/08/31 06:24:32;;;;;;;10.23;5.63;;;;;;;;;;4986575;28;20038;-81
2023/08/31 06:26:58;;;;;;;8.77;5.88;;;;;;;;;;4968938;28;20062;-82
2023/08/31 06:29:23;;;;;;;11.05;5.72;;;;;;;;;;4952915;28;20031;-81
2023/08/31 06:31:49;;;;;;;14.07;5.55;;;;;;;;;;4980208;28;20469;-81
2023/08/31 06:34:14;;;;;;;8.80;5.57;;;;;;;;;;4947570;28;20379;-81
2023/08/31 06:36:40;;;;;;;12.60;5.47;;;;;;;;;;4961075;28;20066;-82
2023/08/31 06:39:06;;;;;;;12.10;5.18;;;;;;;;;;4978676;28;20083;-82
2023/08/31 06:41:31;;;;;;;12.30;5.45;;;;;;;;;;4966828;28;20042;-81
2023/08/31 06:43:57;;;;;;;11.75;4.75;;;;;;;;;;4969374;28;20041;-80
2023/08/31 06:46:25;;;;;;;12.65;4.95;;;;;;;;;;4974386;28;20486;-82
2023/08/31 06:48:51;;;;;;;11.38;6.45;;;;;;;;;;4990449;28;20094;-83
2023/08/31 06:51:16;;;;;;;10.93;5.20;;;;;;;;;;4993485;28;20166;-81
2023/08/31 06:53:43;;;;;;;9.15;5.15;;;;;;;;;;4973924;28;20034;-81
2023/08/31 06:56:09;;;;;;;6.95;4.38;;;;;;;;;;4971614;28;20105;-82
2023/08/31 06:58:34;;;;;;;8.50;4.97;;;;;;;;;;4984699;28;20035;-82
2023/08/31 07:01:00;;;;;;;12.25;4.82;;;;;;;;;;4981256;28;20062;-82
2023/08/31 07:03:27;;;;;;;10.57;4.95;;;;;;;;;;4980406;28;20479;-82
2023/08/31 07:05:53;;;;;;;9.52;5.38;;;;;;;;;;4961975;28;20066;-82
2023/08/31 07:08:21;;;;;;;8.60;3.78;;;;;;;;;;4977659;28;20037;-80
2023/08/31 07:10:50;;;;;;;8.68;4.13;;;;;;;;;;4944623;28;20504;-81
2023/08/31 07:13:15;;;;;;;8.65;3.78;;;;;;;;;;4976700;28;20127;-80
2023/08/31 07:15:41;;;;;;;10.27;4.25;;;;;;;;;;4960826;28;20042;-82
2023/08/31 07:18:07;;;;;;;7.72;4.45;;;;;;;;;;4960489;28;20039;-82
2023/08/31 07:20:33;;;;;;;7.90;3.90;;;;;;;;;;4977378;28;20034;-82
2023/08/31 07:23:02;;;;;;;9.95;3.72;;;;;;;;;;4978703;28;20037;-83
2023/08/31 07:25:29;;;;;;;9.90;4.85;;;;;;;;;;4960483;28;20498;-83
2023/08/31 07:27:54;;;;;;;9.52;4.75;;;;;;;;;;4961094;28;20027;-80
2023/08/31 07:30:20;;;;;;;9.02;4.80;;;;;;;;;;4976297;28;20101;-82
2023/08/31 07:32:45;;;;;;;8.88;4.18;;;;;;;;;;4960662;28;20107;-83
2023/08/31 07:35:10;;;;;;;8.88;4.07;;;;;;;;;;4977236;28;20042;-82
2023/08/31 07:37:37;;;;;;;8.40;4.47;;;;;;;;;;4964232;28;20446;-82
2023/08/31 07:40:24;;;;;;;7.82;4.13;;;;;;;;;;4963399;28;20035;-84
2023/08/31 07:43:15;;;;;;;8.73;3.78;;;;;;;;;;4978377;28;20570;-81
2023/08/31 07:45:43;;;;;;;7.30;3.97;;;;;;;;;;4975769;28;20061;-81
2023/08/31 07:48:08;;;;;;;9.20;4.18;;;;;;;;;;4976484;28;20050;-81
2023/08/31 07:50:37;;;;;;;9.88;5.40;;;;;;;;;;4959884;28;20027;-81
2023/08/31 07:53:03;;;;;;;8.82;3.97;;;;;;;;;;4976777;28;20053;-81
2023/08/31 07:55:29;;;;;;;7.22;3.80;;;;;;;;;;4960731;28;20030;-80
2023/08/31 07:57:54;;;;;;;7.15;3.75;;;;;;;;;;4978661;28;20031;-82
2023/08/31 08:00:20;;;;;;;8.40;3.97;;;;;;;;;;4962649;28;20093;-80
2023/08/31 08:02:46;;;;;;;9.55;4.20;;;;;;;;;;4963764;28;20151;-81
2023/08/31 08:05:11;;;;;;;14.52;4.32;;;;;;;;;;4979937;28;20035;-81
2023/08/31 08:07:37;;;;;;;9.55;4.25;;;;;;;;;;4980289;28;20030;-81
2023/08/31 08:10:02;;;;;;;7.40;3.70;;;;;;;;;;4963152;28;20027;-83
2023/08/31 08:12:36;;;;;;;9.55;3.83;;;;;;;;;;4962582;28;20030;-79
2023/08/31 08:15:02;;;;;;;8.93;3.70;;;;;;;;;;4976721;28;20422;-80
2023/08/31 08:17:29;;;;;;;8.45;3.53;;;;;;;;;;4959464;28;20035;-83
2023/08/31 08:19:55;;;;;;;8.07;4.45;;;;;;;;;;4974912;28;20042;-81
2023/08/31 08:22:20;;;;;;;7.00;3.53;;;;;;;;;;4975255;28;20034;-80
2023/08/31 08:24:46;;;;;;;9.00;3.90;;;;;;;;;;4960158;28;20027;-81
2023/08/31 08:27:12;;;;;;;5.88;3.70;;;;;;;;;;4959720;28;20119;-80
2023/08/31 08:29:37;;;;;;;7.22;2.88;;;;;;;;;;4976488;28;20073;-81
2023/08/31 08:32:03;;;;;;;5.55;3.05;;;;;;;;;;4959735;28;20487;-81
2023/08/31 08:34:28;;;;;;;6.28;2.70;;;;;;;;;;4974749;28;20040;-82
2023/08/31 08:36:54;;;;;;;8.38;3.78;;;;;;;;;;4944201;28;20505;-82
2023/08/31 08:39:19;;;;;;;8.93;3.53;;;;;;;;;;4958406;28;20538;-83
2023/08/31 08:41:45;;;;;;;8.55;3.65;;;;;;;;;;4959272;28;20118;-81
2023/08/31 08:44:14;;;;;;;8.88;3.13;;;;;;;;;;4943464;28;20035;-81
2023/08/31 08:46:40;;;;;;;7.45;3.35;;;;;;;;;;4959863;28;20053;-81
2023/08/31 08:49:06;;;;;;;22.05;4.82;;;;;;;;;;4975432;28;20035;-80
2023/08/31 08:51:35;;;;;;;7.05;3.45;;;;;;;;;;4960174;28;20034;-82
2023/08/31 08:54:01;;;;;;;7.55;3.25;;;;;;;;;;4975202;28;20031;-81
2023/08/31 08:56:27;;;;;;;8.45;3.55;;;;;;;;;;4976532;28;20463;-80
2023/08/31 08:58:52;;;;;;;8.93;3.65;;;;;;;;;;4959194;28;20418;-80
2023/08/31 09:01:22;;;;;;;10.85;4.35;;;;;;;;;;4958765;28;20043;-82
2023/08/31 09:03:48;;;;;;;6.78;3.25;;;;;;;;;;4974790;28;20042;-83
2023/08/31 09:06:13;;;;;;;8.68;3.42;;;;;;;;;;4943728;28;20049;-80
2023/08/31 09:08:41;;;;;;;9.85;3.10;;;;;;;;;;4980118;28;20062;-80
2023/08/31 09:11:07;;;;;;;5.97;3.47;;;;;;;;;;4964184;28;20027;-81
2023/08/31 09:13:33;;;;;;;7.18;2.53;;;;;;;;;;4979075;28;20057;-80
2023/08/31 09:16:01;;;;;;;11.13;2.95;;;;;;;;;;4981714;28;20030;-83
2023/08/31 09:18:32;;;;;;;7.10;3.10;;;;;;;;;;4982643;28;20027;-81
2023/08/31 09:20:58;;;;;;;7.60;2.97;;;;;;;;;;4981567;28;20053;-81
2023/08/31 09:23:23;;;;;;;8.10;2.72;;;;;;;;;;4984719;28;20035;-82
2023/08/31 09:25:50;;;;;;;7.05;3.28;;;;;;;;;;4981533;28;20034;-82
2023/08/31 09:28:16;;;;;;;6.18;2.83;;;;;;;;;;4965036;28;20039;-78
2023/08/31 09:30:42;;;;;;;9.63;4.03;;;;;;;;;;4979797;28;20106;-80
2023/08/31 09:33:09;;;;;;;6.82;3.17;;;;;;;;;;4980779;28;20053;-82
2023/08/31 09:35:38;;;;;;;5.20;2.30;;;;;;;;;;4962037;28;20038;-82
2023/08/31 09:38:06;;;;;;;5.60;2.10;;;;;;;;;;4958836;28;20027;-81
2023/08/31 09:40:32;;;;;;;4.15;1.50;;;;;;;;;;4958517;28;20124;-81
2023/08/31 09:42:57;;;;;;;5.85;2.40;;;;;;;;;;4943583;28;20459;-82
2023/08/31 09:45:28;;;;;;;6.53;1.77;;;;;;;;;;4959183;28;20161;-83
2023/08/31 09:47:55;;;;;;;;;;;;;;;;;;4975441;28;20023;-81
2023/08/31 09:50:23;;;;;;;2.38;1.30;;;;;;;;;;4975616;28;19956;-81
2023/08/31 09:52:51;;;;;;;2.88;1.27;;;;;;;;;;4941983;28;20486;-81
2023/08/31 09:55:17;;;;;;;2.90;1.33;;;;;;;;;;4958284;28;20027;-80
2023/08/31 09:57:45;;;;;;;2.65;1.05;;;;;;;;;;4958701;28;20031;-80
2023/08/31 10:00:11;;;;;;;2.90;1.10;;;;;;;;;;4974867;28;20042;-82
2023/08/31 10:02:36;;;;;;;2.53;1.25;;;;;;;;;;4976565;28;20085;-80
2023/08/31 10:05:02;;;;;;;4.50;1.38;;;;;;;;;;4975492;28;20077;-80
2023/08/31 10:07:28;;;;;;;4.45;1.30;;;;;;;;;;4942206;28;20491;-83
2023/08/31 10:09:55;;;;;;;3.55;2.30;;;;;;;;;;4942779;28;20035;-82
2023/08/31 10:12:20;;;;;;;4.72;1.73;;;;;;;;;;4959109;28;20039;-81
2023/08/31 10:14:49;;;;;;;4.88;1.92;;;;;;;;;;4981709;28;20406;-81
2023/08/31 10:17:14;;;;;;;5.05;2.08;;;;;;;;;;4978643;28;20026;-81
2023/08/31 10:19:40;;;;;;;5.72;1.70;;;;;;;;;;4946681;28;20035;-80
2023/08/31 10:22:05;;;;;;;5.13;2.40;;;;;;;;;;4947489;28;20034;-81
2023/08/31 10:24:50;;;;;;;4.93;2.30;;;;;;;;;;4982122;28;20030;-81
2023/08/31 10:27:18;;;;;;;5.45;2.22;;;;;;;;;;4980767;28;20376;-81
2023/08/31 10:29:44;;;;;;;4.30;1.80;;;;;;;;;;4986599;28;20107;-80
2023/08/31 10:32:09;;;;;;;5.07;1.95;;;;;;;;;;4969145;28;20058;-80
2023/08/31 10:34:38;;;;;;;5.60;2.17;;;;;;;;;;4985472;28;20046;-82
2023/08/31 10:37:19;;;;;;;5.78;1.95;;;;;;;;;;4950316;28;20123;-82
2023/08/31 10:39:44;;;;;;;3.88;2.00;;;;;;;;;;4966618;28;20063;-80
2023/08/31 10:42:11;;;;;;;4.45;1.55;;;;;;;;;;4947299;28;20035;-79
2023/08/31 10:44:37;;;;;;;6.80;1.90;;;;;;;;;;4991966;23;20075;-77
2023/08/31 10:47:05;;;;;;;2.92;1.42;;;;;;;;;;4965395;28;20419;-77
2023/08/31 10:49:32;;;;;;;;;;;;;;;;;;4947603;28;20189;-77
2023/08/31 10:52:15;;;;;;;5.72;1.60;;;;;;;;;;4963930;28;19910;-77
2023/08/31 10:54:45;;;;;;;3.20;1.25;;;;;;;;;;4967239;28;20113;-76
2023/08/31 10:57:13;;;;;;;3.20;1.45;;;;;;;;;;4949678;28;20114;-77
2023/08/31 10:59:44;;;;;;;4.20;1.42;;;;;;;;;;4952454;28;20498;-77
2023/08/31 11:02:10;;;;;;;5.10;1.55;;;;;;;;;;4969795;28;20058;-77
2023/08/31 11:04:52;;;;;;;3.33;1.33;;;;;;;;;;4969919;28;20027;-77
2023/08/31 11:07:23;;;;;;;2.33;1.15;;;;;;;;;;4968514;28;20125;-77
2023/08/31 11:09:48;;;;;;;3.42;1.30;;;;;;;;;;4949929;28;20034;-77
2023/08/31 11:12:14;;;;;;;9.90;1.42;;;;;;;;;;4983907;28;20038;-77
2023/08/31 11:14:40;;;;;;;3.42;1.45;;;;;;;;;;4950287;28;20044;-77
2023/08/31 11:17:07;;;;;;;3.38;1.40;;;;;;;;;;4949127;28;20407;-77
2023/08/31 11:19:33;;;;;;;5.28;1.30;;;;;;;;;;4979336;28;20080;-77
2023/08/31 11:22:03;;;;;;;3.90;1.50;;;;;;;;;;4966957;28;20221;-77
2023/08/31 11:24:32;;;;;;;3.38;1.33;;;;;;;;;;4979374;28;20058;-77
2023/08/31 11:26:57;;;;;;;5.13;1.33;;;;;;;;;;4978633;28;20031;-77
2023/08/31 11:29:23;;;;;;;2.63;1.17;;;;;;;;;;4966566;28;20037;-77
2023/08/31 11:31:49;;;;;;;3.28;1.30;;;;;;;;;;4983696;28;20078;-78
2023/08/31 11:34:16;;;;;;;3.63;1.40;;;;;;;;;;4985117;28;20038;-78
2023/08/31 11:36:42;;;;;;;2.80;1.20;;;;;;;;;;4947517;28;20090;-77
2023/08/31 11:39:11;;;;;;;4.32;1.48;;;;;;;;;;4976559;28;20039;-77
2023/08/31 11:41:41;;;;;;;3.50;1.40;;;;;;;;;;4976236;28;20514;-78
2023/08/31 11:44:07;;;;;;;2.80;0.90;;;;;;;;;;4961414;28;20163;-77
2023/08/31 11:46:33;;;;;;;5.45;1.20;;;;;;;;;;4980108;28;20027;-77
2023/08/31 11:49:04;;;;;;;4.43;1.30;;;;;;;;;;4948973;28;20541;-77
2023/08/31 11:51:33;;;;;;;3.90;0.93;;;;;;;;;;4949432;28;20070;-78
2023/08/31 11:54:03;;;;;;;3.97;1.42;;;;;;;;;;4963991;28;20031;-77
2023/08/31 11:56:48;;;;;;;3.00;1.20;;;;;;;;;;4976250;28;20034;-77
2023/08/31 11:59:18;;;;;;;2.30;0.95;;;;;;;;;;4979134;28;20474;-78
2023/08/31 12:01:45;;;;;;;3.58;1.10;;;;;;;;;;4964403;28;20026;-77
2023/08/31 12:04:11;;;;;;;7.82;1.25;;;;;;;;;;4980556;28;20035;-77
2023/08/31 12:06:37;;;;;;;4.28;1.20;;;;;;;;;;4977488;28;20033;-77
2023/08/31 12:09:04;;;;;;;2.60;1.20;;;;;;;;;;4975602;28;20058;-76
2023/08/31 12:11:30;;;;;;;5.50;1.10;;;;;;;;;;4959464;28;20070;-76
2023/08/31 12:13:59;;;;;;;3.42;1.27;;;;;;;;;;4976040;28;20031;-77
2023/08/31 12:16:24;;;;;;;3.47;1.30;;;;;;;;;;4959841;28;20035;-77
2023/08/31 12:18:51;;;;;;;3.15;1.45;;;;;;;;;;4977531;28;20173;-77
2023/08/31 12:21:19;;;;;;;3.88;1.50;;;;;;;;;;4964441;28;20041;-78
2023/08/31 12:23:45;;;;;;;3.33;1.17;;;;;;;;;;4947055;28;20035;-78
2023/08/31 12:26:11;;;;;;;4.28;1.27;;;;;;;;;;4948507;28;20050;-78
2023/08/31 12:28:37;;;;;;;5.53;1.60;;;;;;;;;;4948814;28;20035;-78
2023/08/31 12:31:04;;;;;;;4.20;1.40;;;;;;;;;;4965393;28;20027;-78
2023/08/31 12:33:29;;;;;;;3.00;1.27;;;;;;;;;;4947611;28;20038;-78
2023/08/31 12:35:55;;;;;;;3.10;1.25;;;;;;;;;;4963001;28;20395;-78
2023/08/31 12:38:21;;;;;;;6.45;1.20;;;;;;;;;;4930872;28;20035;-78
2023/08/31 12:40:48;;;;;;;6.30;1.42;;;;;;;;;;4946470;28;20035;-79
2023/08/31 12:43:13;;;;;;;5.38;1.35;;;;;;;;;;4961430;28;20077;-78
2023/08/31 12:45:39;;;;;;;2.30;1.02;;;;;;;;;;4979638;28;20137;-78
2023/08/31 12:48:05;;;;;;;3.10;1.10;;;;;;;;;;4962142;28;20041;-77
2023/08/31 12:50:30;;;;;;;2.95;1.30;;;;;;;;;;4966425;28;20046;-79
2023/08/31 12:52:56;;;;;;;6.63;1.17;;;;;;;;;;4965411;28;20057;-78
2023/08/31 12:55:21;;;;;;;2.63;1.00;;;;;;;;;;4983657;28;20086;-78
2023/08/31 12:57:47;;;;;;;8.88;1.10;;;;;;;;;;4954982;28;20043;-78
2023/08/31 13:00:14;;;;;;;2.92;1.10;;;;;;;;;;4987565;28;20102;-78
2023/08/31 13:02:41;;;;;;;2.45;0.90;;;;;;;;;;4988676;28;20038;-78
2023/08/31 13:05:08;;;;;;;3.72;1.02;;;;;;;;;;4988767;28;20031;-78
2023/08/31 13:07:35;;;;;;;3.22;1.20;;;;;;;;;;4953120;28;20034;-77
2023/08/31 13:10:03;;;;;;;3.95;0.95;;;;;;;;;;4964877;28;20039;-77
2023/08/31 13:12:32;;;;;;;;;;;;;;;;;;4969958;28;20047;-78
2023/08/31 13:15:01;;;;;;;3.58;1.10;;;;;;;;;;4967828;28;19910;-77
2023/08/31 13:17:30;;;;;;;2.53;0.90;;;;;;;;;;4985645;28;20053;-79
2023/08/31 13:19:57;;;;;;;5.65;0.85;;;;;;;;;;4960975;28;20482;-79
2023/08/31 13:22:22;;;;;;;1.45;0.77;;;;;;;;;;4977837;28;20041;-78
2023/08/31 13:24:48;;;;;;;3.38;1.27;;;;;;;;;;4960394;28;20358;-79
2023/08/31 13:27:14;;;;;;;6.22;1.08;;;;;;;;;;4946726;28;20035;-78
2023/08/31 13:29:40;;;;;;;3.25;1.08;;;;;;;;;;4949420;28;20062;-77
2023/08/31 13:32:07;;;;;;;3.13;1.23;;;;;;;;;;4979250;28;20058;-78
2023/08/31 13:34:36;;;;;;;3.90;1.52;;;;;;;;;;4976241;28;20525;-78
2023/08/31 13:37:03;;;;;;;4.45;0.93;;;;;;;;;;4973855;28;20031;-77
2023/08/31 13:39:31;;;;;;;2.75;1.00;;;;;;;;;;4973862;28;20054;-77
2023/08/31 13:41:57;;;;;;;1.63;0.82;;;;;;;;;;4974387;28;20399;-78
2023/08/31 13:44:22;;;;;;;3.35;1.60;;;;;;;;;;4957943;28;20043;-77
2023/08/31 13:46:48;;;;;;;2.90;1.02;;;;;;;;;;4944769;28;20042;-77
2023/08/31 13:49:14;;;;;;;1.95;0.80;;;;;;;;;;4947653;28;20027;-78
2023/08/31 13:51:40;;;;;;;1.85;0.80;;;;;;;;;;4964988;28;20031;-76
2023/08/31 13:54:06;;;;;;;3.42;1.00;;;;;;;;;;4948105;28;20065;-77
2023/08/31 13:56:33;;;;;;;2.60;0.90;;;;;;;;;;4965334;28;20031;-77
2023/08/31 13:58:58;;;;;;;2.25;1.00;;;;;;;;;;4981176;28;20038;-77
2023/08/31 14:01:24;;;;;;;4.65;0.80;;;;;;;;;;4963937;28;20467;-77
2023/08/31 14:03:50;;;;;;;4.28;1.23;;;;;;;;;;4962065;28;20077;-77
2023/08/31 14:06:16;;;;;;;3.72;1.10;;;;;;;;;;4962111;28;20109;-78
2023/08/31 14:08:41;;;;;;;2.30;1.10;;;;;;;;;;4961847;28;20034;-77
2023/08/31 14:11:07;;;;;;;3.45;1.00;;;;;;;;;;4945996;28;20041;-78
2023/08/31 14:13:36;;;;;;;1.58;0.82;;;;;;;;;;4961900;28;20431;-77
2023/08/31 14:16:02;;;;;;;3.97;1.02;;;;;;;;;;4978202;28;20069;-77
2023/08/31 14:18:34;;;;;;;5.70;1.30;;;;;;;;;;4945235;28;20046;-77
2023/08/31 14:21:00;;;;;;;5.00;1.20;;;;;;;;;;4961141;28;20521;-77
2023/08/31 14:23:26;;;;;;;6.45;1.90;;;;;;;;;;4977513;28;20105;-78
2023/08/31 14:25:52;;;;;;;4.30;1.10;;;;;;;;;;4962417;28;20062;-77
2023/08/31 14:28:17;;;;;;;2.67;1.33;;;;;;;;;;4963254;28;20031;-79
2023/08/31 14:30:43;;;;;;;2.83;1.10;;;;;;;;;;4963247;28;20054;-78
2023/08/31 14:33:09;;;;;;;2.25;1.00;;;;;;;;;;4984990;28;20120;-78
2023/08/31 14:35:38;;;;;;;2.92;1.10;;;;;;;;;;4964462;28;20042;-78
2023/08/31 14:38:03;;;;;;;1.38;0.70;;;;;;;;;;4977742;28;20178;-79
2023/08/31 14:40:29;;;;;;;7.05;1.10;;;;;;;;;;4963096;28;20074;-78
2023/08/31 14:42:54;;;;;;;3.80;0.90;;;;;;;;;;4965781;28;20126;-79